Chubbuck, ID (83202)

5:44 AM MDT on August 28, 2016 (GMT -0600)
North West Pocatello | | Change Station

Elev 5194 ft 42.90 °N, 112.48 °W | Updated 46 seconds ago

Clear
Clear
58.6 °F
Feels Like 58.6 °F
N
3.2
Wind Variable Wind from ESE

Today
High -- | Low -- °F
--% Chance of Precip.
Yesterday
High -- | Low -- °F
Precip. -- in
Pressure 29.95 in
Visibility 10.0 miles
Clouds Clear
Dew Point 31 °F
Humidity 35%
Rainfall 0.00 in
Snow Depth Not available.
6:50 AM 8:10 PM
Waning Crescent, 16% visible
METAR KPIH 281053Z AUTO 36006KT 10SM CLR 09/00 A3007 RMK AO2 SLP140 T00890000
Pressure 29.95 in
Visibility 10.0 miles
Clouds Clear
Dew Point 31 °F
Humidity 35%
Rainfall 0.00 in
Snow Depth Not available.
6:50 AM 8:10 PM
Waning Crescent, 16% visible
METAR KPIH 281053Z AUTO 36006KT 10SM CLR 09/00 A3007 RMK AO2 SLP140 T00890000

10-Day Weather Forecast

Almanac

Astronomy

Aug. 28, 2016 Rise Set
Actual Time
Civil Twilight
Nautical Twilight
Astronomical Twilight
Moon
Length of Visible Light
Length of Day
Tomorrow will be .
, % of the Moon is Illuminated

Today's Extremes

State Highs State Lows

Community

WunderPhotos

Upload Photos

1,935,549 photos uploaded!

WunderBlog® & News

Nearby

Air Quality

  Air Quality AQ Index Pollutant
Not available.

Snow Depth

Station Depth Elevation

Earthquake Activity

City Distance Mag. Time & Date
Minimum magnitude displayed is 2.5.

Coastal Water Temperatures

Place Temperature

Stations

Nearby Weather Stations

Station Location Temp. Windchill Dew Point Humidity Wind Precip. Elev Updated Type
                   

Watches & Warnings

There are currently no watches in effect.